sensor_id;sensor_type;location;lat;lon;timestamp;P1;durP1;ratioP1;P2;durP2;ratioP2
55021;SDS011;68328;35.990;-86.756;2023-04-01T00:00:06;14;;;14;;
55021;SDS011;68328;35.990;-86.756;2023-04-01T00:02:32;14;;;14;;
55021;SDS011;68328;35.990;-86.756;2023-04-01T00:04:56;14;;;13;;
55021;SDS011;68328;35.990;-86.756;2023-04-01T00:07:24;12;;;12;;
55021;SDS011;68328;35.990;-86.756;2023-04-01T00:09:48;15;;;14;;
55021;SDS011;68328;35.990;-86.756;2023-04-01T00:12:13;11;;;11;;
55021;SDS011;68328;35.990;-86.756;2023-04-01T00:14:38;15;;;15;;
55021;SDS011;68328;35.990;-86.756;2023-04-01T00:17:05;19;;;18;;
55021;SDS011;68328;35.990;-86.756;2023-04-01T00:19:29;17;;;15;;
55021;SDS011;68328;35.990;-86.756;2023-04-01T00:21:54;14;;;13;;
55021;SDS011;68328;35.990;-86.756;2023-04-01T00:24:20;13;;;12;;
55021;SDS011;68328;35.990;-86.756;2023-04-01T00:26:46;13;;;13;;
55021;SDS011;68328;35.990;-86.756;2023-04-01T00:29:11;16;;;16;;
55021;SDS011;68328;35.990;-86.756;2023-04-01T00:31:37;14;;;14;;
55021;SDS011;68328;35.990;-86.756;2023-04-01T00:34:03;15;;;14;;
55021;SDS011;68328;35.990;-86.756;2023-04-01T00:36:29;15;;;15;;
55021;SDS011;68328;35.990;-86.756;2023-04-01T00:38:54;16;;;12;;
55021;SDS011;68328;35.990;-86.756;2023-04-01T00:41:19;13;;;12;;
55021;SDS011;68328;35.990;-86.756;2023-04-01T00:43:46;13;;;13;;
55021;SDS011;68328;35.990;-86.756;2023-04-01T00:46:11;14;;;13;;
55021;SDS011;68328;35.990;-86.756;2023-04-01T00:48:35;18;;;16;;
55021;SDS011;68328;35.990;-86.756;2023-04-01T00:51:02;16;;;15;;
55021;SDS011;68328;35.990;-86.756;2023-04-01T00:53:27;17;;;14;;
55021;SDS011;68328;35.990;-86.756;2023-04-01T00:55:54;15;;;14;;
55021;SDS011;68328;35.990;-86.756;2023-04-01T00:58:18;16;;;16;;
55021;SDS011;68328;35.990;-86.756;2023-04-01T01:00:43;16;;;15;;
55021;SDS011;68328;35.990;-86.756;2023-04-01T01:03:09;18;;;17;;
55021;SDS011;68328;35.990;-86.756;2023-04-01T01:05:38;15;;;13;;
55021;SDS011;68328;35.990;-86.756;2023-04-01T01:08:00;14;;;12;;
55021;SDS011;68328;35.990;-86.756;2023-04-01T01:10:24;13;;;12;;
55021;SDS011;68328;35.990;-86.756;2023-04-01T01:12:50;14;;;12;;
55021;SDS011;68328;35.990;-86.756;2023-04-01T01:15:18;13;;;13;;
55021;SDS011;68328;35.990;-86.756;2023-04-01T01:17:45;17;;;17;;
55021;SDS011;68328;35.990;-86.756;2023-04-01T01:22:35;18;;;16;;
55021;SDS011;68328;35.990;-86.756;2023-04-01T01:25:02;20;;;20;;
55021;SDS011;68328;35.990;-86.756;2023-04-01T01:27:22;20;;;16;;
55021;SDS011;68328;35.990;-86.756;2023-04-01T01:29:57;14;;;14;;
55021;SDS011;68328;35.990;-86.756;2023-04-01T01:32:17;14;;;14;;
55021;SDS011;68328;35.990;-86.756;2023-04-01T01:34:40;15;;;14;;
55021;SDS011;68328;35.990;-86.756;2023-04-01T01:37:05;17;;;17;;
55021;SDS011;68328;35.990;-86.756;2023-04-01T01:39:30;14;;;14;;
55021;SDS011;68328;35.990;-86.756;2023-04-01T01:41:55;15;;;15;;
55021;SDS011;68328;35.990;-86.756;2023-04-01T01:44:19;14;;;14;;
55021;SDS011;68328;35.990;-86.756;2023-04-01T01:46:45;22;;;22;;
55021;SDS011;68328;35.990;-86.756;2023-04-01T01:49:11;18;;;18;;
55021;SDS011;68328;35.990;-86.756;2023-04-01T01:51:36;22;;;21;;
55021;SDS011;68328;35.990;-86.756;2023-04-01T01:54:02;14;;;14;;
55021;SDS011;68328;35.990;-86.756;2023-04-01T01:56:26;14;;;14;;
55021;SDS011;68328;35.990;-86.756;2023-04-01T01:58:52;16;;;14;;
55021;SDS011;68328;35.990;-86.756;2023-04-01T02:01:19;14;;;14;;
55021;SDS011;68328;35.990;-86.756;2023-04-01T02:03:42;18;;;17;;
55021;SDS011;68328;35.990;-86.756;2023-04-01T02:06:08;15;;;14;;
55021;SDS011;68328;35.990;-86.756;2023-04-01T02:08:33;15;;;15;;
55021;SDS011;68328;35.990;-86.756;2023-04-01T02:10:59;16;;;16;;
55021;SDS011;68328;35.990;-86.756;2023-04-01T02:13:26;18;;;16;;
55021;SDS011;68328;35.990;-86.756;2023-04-01T02:15:49;19;;;17;;
55021;SDS011;68328;35.990;-86.756;2023-04-01T02:18:13;17;;;14;;
55021;SDS011;68328;35.990;-86.756;2023-04-01T02:20:39;15;;;15;;
55021;SDS011;68328;35.990;-86.756;2023-04-01T02:23:04;14;;;13;;
55021;SDS011;68328;35.990;-86.756;2023-04-01T02:25:30;16;;;15;;
55021;SDS011;68328;35.990;-86.756;2023-04-01T02:27:56;14;;;14;;
55021;SDS011;68328;35.990;-86.756;2023-04-01T02:30:22;18;;;16;;
55021;SDS011;68328;35.990;-86.756;2023-04-01T02:32:46;21;;;18;;
55021;SDS011;68328;35.990;-86.756;2023-04-01T02:35:11;15;;;15;;
55021;SDS011;68328;35.990;-86.756;2023-04-01T02:37:37;19;;;16;;
55021;SDS011;68328;35.990;-86.756;2023-04-01T02:40:02;14;;;13;;
55021;SDS011;68328;35.990;-86.756;2023-04-01T02:42:27;16;;;16;;
55021;SDS011;68328;35.990;-86.756;2023-04-01T02:44:53;15;;;14;;
55021;SDS011;68328;35.990;-86.756;2023-04-01T02:47:18;15;;;15;;
55021;SDS011;68328;35.990;-86.756;2023-04-01T02:49:45;15;;;15;;
55021;SDS011;68328;35.990;-86.756;2023-04-01T02:52:09;20;;;20;;
55021;SDS011;68328;35.990;-86.756;2023-04-01T02:54:34;18;;;17;;
55021;SDS011;68328;35.990;-86.756;2023-04-01T02:56:59;15;;;14;;
55021;SDS011;68328;35.990;-86.756;2023-04-01T02:59:25;15;;;15;;
55021;SDS011;68328;35.990;-86.756;2023-04-01T03:01:51;11;;;11;;
55021;SDS011;68328;35.990;-86.756;2023-04-01T03:04:16;12;;;12;;
55021;SDS011;68328;35.990;-86.756;2023-04-01T03:06:43;15;;;15;;
55021;SDS011;68328;35.990;-86.756;2023-04-01T03:09:07;13;;;13;;
55021;SDS011;68328;35.990;-86.756;2023-04-01T03:11:32;15;;;14;;
55021;SDS011;68328;35.990;-86.756;2023-04-01T03:13:58;15;;;14;;
55021;SDS011;68328;35.990;-86.756;2023-04-01T03:16:23;19;;;17;;
55021;SDS011;68328;35.990;-86.756;2023-04-01T03:18:48;15;;;15;;
55021;SDS011;68328;35.990;-86.756;2023-04-01T03:21:17;11;;;11;;
55021;SDS011;68328;35.990;-86.756;2023-04-01T03:23:39;13;;;13;;
55021;SDS011;68328;35.990;-86.756;2023-04-01T03:26:05;16;;;12;;
55021;SDS011;68328;35.990;-86.756;2023-04-01T03:28:31;12;;;12;;
55021;SDS011;68328;35.990;-86.756;2023-04-01T03:30:56;13;;;13;;
55021;SDS011;68328;35.990;-86.756;2023-04-01T03:33:22;12;;;12;;
55021;SDS011;68328;35.990;-86.756;2023-04-01T03:35:47;17;;;17;;
55021;SDS011;68328;35.990;-86.756;2023-04-01T03:38:13;16;;;16;;
55021;SDS011;68328;35.990;-86.756;2023-04-01T03:40:38;11;;;11;;
55021;SDS011;68328;35.990;-86.756;2023-04-01T03:43:04;13;;;13;;
55021;SDS011;68328;35.990;-86.756;2023-04-01T03:45:29;15;;;15;;
55021;SDS011;68328;35.990;-86.756;2023-04-01T03:47:55;12;;;11;;
55021;SDS011;68328;35.990;-86.756;2023-04-01T03:50:21;12;;;12;;
55021;SDS011;68328;35.990;-86.756;2023-04-01T03:52:46;13;;;12;;
55021;SDS011;68328;35.990;-86.756;2023-04-01T03:55:11;13;;;13;;
55021;SDS011;68328;35.990;-86.756;2023-04-01T03:57:37;16;;;15;;
55021;SDS011;68328;35.990;-86.756;2023-04-01T04:00:03;14;;;14;;
55021;SDS011;68328;35.990;-86.756;2023-04-01T04:02:28;14;;;14;;
55021;SDS011;68328;35.990;-86.756;2023-04-01T04:04:54;13;;;12;;
55021;SDS011;68328;35.990;-86.756;2023-04-01T04:07:20;12;;;11;;
55021;SDS011;68328;35.990;-86.756;2023-04-01T04:09:46;16;;;14;;
55021;SDS011;68328;35.990;-86.756;2023-04-01T04:12:11;18;;;16;;
55021;SDS011;68328;35.990;-86.756;2023-04-01T04:14:37;22;;;22;;
55021;SDS011;68328;35.990;-86.756;2023-04-01T04:17:02;14;;;14;;
55021;SDS011;68328;35.990;-86.756;2023-04-01T04:19:31;16;;;15;;
55021;SDS011;68328;35.990;-86.756;2023-04-01T04:21:54;16;;;16;;
55021;SDS011;68328;35.990;-86.756;2023-04-01T04:24:19;14;;;14;;
55021;SDS011;68328;35.990;-86.756;2023-04-01T04:26:44;15;;;13;;
55021;SDS011;68328;35.990;-86.756;2023-04-01T04:29:10;14;;;14;;
55021;SDS011;68328;35.990;-86.756;2023-04-01T04:31:34;18;;;15;;
55021;SDS011;68328;35.990;-86.756;2023-04-01T04:34:00;14;;;12;;
55021;SDS011;68328;35.990;-86.756;2023-04-01T04:36:25;15;;;14;;
55021;SDS011;68328;35.990;-86.756;2023-04-01T04:38:50;15;;;15;;
55021;SDS011;68328;35.990;-86.756;2023-04-01T04:41:17;17;;;17;;
55021;SDS011;68328;35.990;-86.756;2023-04-01T04:43:42;15;;;12;;
55021;SDS011;68328;35.990;-86.756;2023-04-01T04:46:08;20;;;18;;
55021;SDS011;68328;35.990;-86.756;2023-04-01T04:48:33;15;;;12;;
55021;SDS011;68328;35.990;-86.756;2023-04-01T04:50:59;13;;;12;;
55021;SDS011;68328;35.990;-86.756;2023-04-01T04:53:24;14;;;14;;
55021;SDS011;68328;35.990;-86.756;2023-04-01T04:55:50;15;;;14;;
55021;SDS011;68328;35.990;-86.756;2023-04-01T04:58:16;14;;;13;;
55021;SDS011;68328;35.990;-86.756;2023-04-01T05:00:42;12;;;12;;
55021;SDS011;68328;35.990;-86.756;2023-04-01T05:03:07;16;;;14;;
55021;SDS011;68328;35.990;-86.756;2023-04-01T05:05:33;13;;;12;;
55021;SDS011;68328;35.990;-86.756;2023-04-01T05:07:58;12;;;11;;
55021;SDS011;68328;35.990;-86.756;2023-04-01T05:10:23;15;;;15;;
55021;SDS011;68328;35.990;-86.756;2023-04-01T05:12:50;18;;;16;;
55021;SDS011;68328;35.990;-86.756;2023-04-01T05:15:14;15;;;12;;
55021;SDS011;68328;35.990;-86.756;2023-04-01T05:17:40;10;;;10;;
55021;SDS011;68328;35.990;-86.756;2023-04-01T05:20:06;16;;;14;;
55021;SDS011;68328;35.990;-86.756;2023-04-01T05:22:32;14;;;14;;
55021;SDS011;68328;35.990;-86.756;2023-04-01T05:24:57;14;;;14;;
55021;SDS011;68328;35.990;-86.756;2023-04-01T05:27:23;14;;;12;;
55021;SDS011;68328;35.990;-86.756;2023-04-01T05:29:48;16;;;15;;
55021;SDS011;68328;35.990;-86.756;2023-04-01T05:32:13;12;;;12;;
55021;SDS011;68328;35.990;-86.756;2023-04-01T05:34:39;15;;;12;;
55021;SDS011;68328;35.990;-86.756;2023-04-01T05:37:04;14;;;14;;
55021;SDS011;68328;35.990;-86.756;2023-04-01T05:39:30;12;;;10;;
55021;SDS011;68328;35.990;-86.756;2023-04-01T05:41:55;14;;;14;;
55021;SDS011;68328;35.990;-86.756;2023-04-01T05:44:21;11;;;11;;
55021;SDS011;68328;35.990;-86.756;2023-04-01T05:46:48;13;;;12;;
55021;SDS011;68328;35.990;-86.756;2023-04-01T05:49:12;14;;;14;;
55021;SDS011;68328;35.990;-86.756;2023-04-01T05:51:38;12;;;12;;
55021;SDS011;68328;35.990;-86.756;2023-04-01T05:54:04;19;;;18;;
55021;SDS011;68328;35.990;-86.756;2023-04-01T05:56:28;16;;;16;;
55021;SDS011;68328;35.990;-86.756;2023-04-01T05:58:54;19;;;19;;
55021;SDS011;68328;35.990;-86.756;2023-04-01T06:01:20;18;;;18;;
55021;SDS011;68328;35.990;-86.756;2023-04-01T06:03:47;30;;;24;;
55021;SDS011;68328;35.990;-86.756;2023-04-01T06:06:11;17;;;16;;
55021;SDS011;68328;35.990;-86.756;2023-04-01T06:08:36;26;;;25;;
55021;SDS011;68328;35.990;-86.756;2023-04-01T06:11:07;30;;;28;;
55021;SDS011;68328;35.990;-86.756;2023-04-01T06:13:32;19;;;19;;
55021;SDS011;68328;35.990;-86.756;2023-04-01T06:15:53;24;;;23;;
55021;SDS011;68328;35.990;-86.756;2023-04-01T06:18:27;23;;;23;;
55021;SDS011;68328;35.990;-86.756;2023-04-01T06:20:45;17;;;17;;
55021;SDS011;68328;35.990;-86.756;2023-04-01T06:23:15;12;;;12;;
55021;SDS011;68328;35.990;-86.756;2023-04-01T06:25:40;10;;;10;;
55021;SDS011;68328;35.990;-86.756;2023-04-01T06:28:07;14;;;14;;
55021;SDS011;68328;35.990;-86.756;2023-04-01T06:32:57;11;;;10;;
55021;SDS011;68328;35.990;-86.756;2023-04-01T06:37:47;13;;;11;;
55021;SDS011;68328;35.990;-86.756;2023-04-01T06:40:16;14;;;11;;
55021;SDS011;68328;35.990;-86.756;2023-04-01T06:42:39;10;;;9;;
55021;SDS011;68328;35.990;-86.756;2023-04-01T06:45:05;12;;;12;;
55021;SDS011;68328;35.990;-86.756;2023-04-01T06:47:36;8;;;8;;
55021;SDS011;68328;35.990;-86.756;2023-04-01T06:49:52;9;;;9;;
55021;SDS011;68328;35.990;-86.756;2023-04-01T06:52:18;9;;;9;;
55021;SDS011;68328;35.990;-86.756;2023-04-01T06:54:43;8;;;7;;
55021;SDS011;68328;35.990;-86.756;2023-04-01T06:57:12;8;;;8;;
55021;SDS011;68328;35.990;-86.756;2023-04-01T06:59:33;10;;;9;;
55021;SDS011;68328;35.990;-86.756;2023-04-01T07:02:00;9;;;9;;
55021;SDS011;68328;35.990;-86.756;2023-04-01T07:04:25;9;;;9;;
55021;SDS011;68328;35.990;-86.756;2023-04-01T07:06:51;10;;;10;;
55021;SDS011;68328;35.990;-86.756;2023-04-01T07:09:18;9;;;9;;
55021;SDS011;68328;35.990;-86.756;2023-04-01T07:11:42;11;;;9;;
55021;SDS011;68328;35.990;-86.756;2023-04-01T07:14:08;10;;;10;;
55021;SDS011;68328;35.990;-86.756;2023-04-01T07:16:32;10;;;9;;
55021;SDS011;68328;35.990;-86.756;2023-04-01T07:18:57;7;;;7;;
55021;SDS011;68328;35.990;-86.756;2023-04-01T07:21:25;6;;;6;;
55021;SDS011;68328;35.990;-86.756;2023-04-01T07:23:47;6;;;6;;
55021;SDS011;68328;35.990;-86.756;2023-04-01T07:26:16;10;;;9;;
55021;SDS011;68328;35.990;-86.756;2023-04-01T07:28:39;8;;;8;;
55021;SDS011;68328;35.990;-86.756;2023-04-01T07:31:09;7;;;7;;
55021;SDS011;68328;35.990;-86.756;2023-04-01T07:33:32;7;;;7;;
55021;SDS011;68328;35.990;-86.756;2023-04-01T07:35:56;8;;;8;;
55021;SDS011;68328;35.990;-86.756;2023-04-01T07:38:24;10;;;8;;
55021;SDS011;68328;35.990;-86.756;2023-04-01T07:40:47;8;;;8;;
55021;SDS011;68328;35.990;-86.756;2023-04-01T07:43:18;9;;;8;;
55021;SDS011;68328;35.990;-86.756;2023-04-01T07:45:39;9;;;7;;
55021;SDS011;68328;35.990;-86.756;2023-04-01T07:48:08;9;;;9;;
55021;SDS011;68328;35.990;-86.756;2023-04-01T07:50:29;10;;;10;;
55021;SDS011;68328;35.990;-86.756;2023-04-01T07:52:57;11;;;9;;
55021;SDS011;68328;35.990;-86.756;2023-04-01T07:55:20;10;;;9;;
55021;SDS011;68328;35.990;-86.756;2023-04-01T07:57:47;9;;;9;;
55021;SDS011;68328;35.990;-86.756;2023-04-01T08:00:11;9;;;9;;
55021;SDS011;68328;35.990;-86.756;2023-04-01T08:02:40;14;;;11;;
55021;SDS011;68328;35.990;-86.756;2023-04-01T08:05:06;11;;;9;;
55021;SDS011;68328;35.990;-86.756;2023-04-01T08:07:28;10;;;9;;
55021;SDS011;68328;35.990;-86.756;2023-04-01T08:09:54;12;;;12;;
55021;SDS011;68328;35.990;-86.756;2023-04-01T08:12:20;10;;;10;;
55021;SDS011;68328;35.990;-86.756;2023-04-01T08:14:46;14;;;14;;
55021;SDS011;68328;35.990;-86.756;2023-04-01T08:17:09;11;;;9;;
55021;SDS011;68328;35.990;-86.756;2023-04-01T08:19:40;12;;;12;;
55021;SDS011;68328;35.990;-86.756;2023-04-01T08:22:02;11;;;11;;
55021;SDS011;68328;35.990;-86.756;2023-04-01T08:24:28;11;;;11;;
55021;SDS011;68328;35.990;-86.756;2023-04-01T08:26:51;8;;;8;;
55021;SDS011;68328;35.990;-86.756;2023-04-01T08:29:16;9;;;9;;
55021;SDS011;68328;35.990;-86.756;2023-04-01T08:31:43;13;;;12;;
55021;SDS011;68328;35.990;-86.756;2023-04-01T08:34:10;11;;;11;;
55021;SDS011;68328;35.990;-86.756;2023-04-01T08:36:33;12;;;12;;
55021;SDS011;68328;35.990;-86.756;2023-04-01T08:38:59;9;;;9;;
55021;SDS011;68328;35.990;-86.756;2023-04-01T08:46:20;10;;;7;;
55021;SDS011;68328;35.990;-86.756;2023-04-01T08:48:44;12;;;12;;
55021;SDS011;68328;35.990;-86.756;2023-04-01T08:58:26;9;;;9;;
55021;SDS011;68328;35.990;-86.756;2023-04-01T09:00:47;8;;;8;;
55021;SDS011;68328;35.990;-86.756;2023-04-01T09:05:43;10;;;9;;
55021;SDS011;68328;35.990;-86.756;2023-04-01T09:08:05;8;;;8;;
55021;SDS011;68328;35.990;-86.756;2023-04-01T09:12:59;9;;;9;;
55021;SDS011;68328;35.990;-86.756;2023-04-01T09:15:25;10;;;9;;
55021;SDS011;68328;35.990;-86.756;2023-04-01T09:17:49;8;;;8;;
55021;SDS011;68328;35.990;-86.756;2023-04-01T09:22:38;9;;;9;;
55021;SDS011;68328;35.990;-86.756;2023-04-01T09:27:27;9;;;9;;
55021;SDS011;68328;35.990;-86.756;2023-04-01T09:29:59;8;;;8;;
55021;SDS011;68328;35.990;-86.756;2023-04-01T09:39:35;9;;;7;;
55021;SDS011;68328;35.990;-86.756;2023-04-01T09:44:27;9;;;7;;
55021;SDS011;68328;35.990;-86.756;2023-04-01T09:46:54;10;;;10;;
55021;SDS011;68328;35.990;-86.756;2023-04-01T09:51:41;9;;;7;;
55021;SDS011;68328;35.990;-86.756;2023-04-01T09:54:10;8;;;7;;
55021;SDS011;68328;35.990;-86.756;2023-04-01T09:59:06;9;;;9;;
55021;SDS011;68328;35.990;-86.756;2023-04-01T10:23:17;12;;;8;;
55021;SDS011;68328;35.990;-86.756;2023-04-01T10:30:32;8;;;8;;
55021;SDS011;68328;35.990;-86.756;2023-04-01T10:35:26;9;;;8;;
55021;SDS011;68328;35.990;-86.756;2023-04-01T10:52:26;6;;;6;;
55021;SDS011;68328;35.990;-86.756;2023-04-01T10:54:45;8;;;7;;
55021;SDS011;68328;35.990;-86.756;2023-04-01T10:57:12;8;;;6;;
55021;SDS011;68328;35.990;-86.756;2023-04-01T11:16:34;8;;;8;;
55021;SDS011;68328;35.990;-86.756;2023-04-01T11:23:50;7;;;7;;
55021;SDS011;68328;35.990;-86.756;2023-04-01T11:26:15;10;;;7;;
55021;SDS011;68328;35.990;-86.756;2023-04-01T11:28:47;7;;;6;;
55021;SDS011;68328;35.990;-86.756;2023-04-01T11:33:29;11;;;9;;
55021;SDS011;68328;35.990;-86.756;2023-04-01T11:35:55;7;;;7;;
55021;SDS011;68328;35.990;-86.756;2023-04-01T11:38:22;8;;;6;;
55021;SDS011;68328;35.990;-86.756;2023-04-01T11:40:46;13;;;11;;
55021;SDS011;68328;35.990;-86.756;2023-04-01T11:43:13;6;;;6;;
55021;SDS011;68328;35.990;-86.756;2023-04-01T11:45:36;6;;;5;;
55021;SDS011;68328;35.990;-86.756;2023-04-01T11:50:28;5;;;5;;
55021;SDS011;68328;35.990;-86.756;2023-04-01T11:52:58;15;;;14;;
55021;SDS011;68328;35.990;-86.756;2023-04-01T11:55:24;8;;;7;;
55021;SDS011;68328;35.990;-86.756;2023-04-01T11:57:51;6;;;6;;
55021;SDS011;68328;35.990;-86.756;2023-04-01T12:02:34;9;;;8;;
55021;SDS011;68328;35.990;-86.756;2023-04-01T12:07:31;8;;;6;;
55021;SDS011;68328;35.990;-86.756;2023-04-01T12:09:51;6;;;6;;
55021;SDS011;68328;35.990;-86.756;2023-04-01T12:12:19;8;;;8;;
55021;SDS011;68328;35.990;-86.756;2023-04-01T12:14:41;9;;;9;;
55021;SDS011;68328;35.990;-86.756;2023-04-01T12:17:08;8;;;8;;
55021;SDS011;68328;35.990;-86.756;2023-04-01T12:19:34;9;;;7;;
55021;SDS011;68328;35.990;-86.756;2023-04-01T12:22:00;9;;;9;;
55021;SDS011;68328;35.990;-86.756;2023-04-01T12:26:49;6;;;5;;
55021;SDS011;68328;35.990;-86.756;2023-04-01T12:29:18;7;;;7;;
55021;SDS011;68328;35.990;-86.756;2023-04-01T12:31:41;8;;;7;;
55021;SDS011;68328;35.990;-86.756;2023-04-01T12:36:33;7;;;7;;
55021;SDS011;68328;35.990;-86.756;2023-04-01T12:41:22;8;;;7;;
55021;SDS011;68328;35.990;-86.756;2023-04-01T12:46:13;6;;;6;;
55021;SDS011;68328;35.990;-86.756;2023-04-01T12:48:40;8;;;6;;
55021;SDS011;68328;35.990;-86.756;2023-04-01T12:51:07;9;;;7;;
55021;SDS011;68328;35.990;-86.756;2023-04-01T12:53:32;7;;;7;;
55021;SDS011;68328;35.990;-86.756;2023-04-01T12:55:52;10;;;9;;
55021;SDS011;68328;35.990;-86.756;2023-04-01T12:58:23;7;;;7;;
55021;SDS011;68328;35.990;-86.756;2023-04-01T13:00:50;7;;;6;;
55021;SDS011;68328;35.990;-86.756;2023-04-01T13:03:14;10;;;9;;
55021;SDS011;68328;35.990;-86.756;2023-04-01T13:05:37;12;;;5;;
55021;SDS011;68328;35.990;-86.756;2023-04-01T13:08:00;9;;;9;;
55021;SDS011;68328;35.990;-86.756;2023-04-01T13:10:30;5;;;1;;
55021;SDS011;68328;35.990;-86.756;2023-04-01T13:12:59;7;;;7;;
55021;SDS011;68328;35.990;-86.756;2023-04-01T13:15:21;12;;;11;;
55021;SDS011;68328;35.990;-86.756;2023-04-01T13:17:43;7;;;5;;
55021;SDS011;68328;35.990;-86.756;2023-04-01T13:20:11;7;;;5;;
55021;SDS011;68328;35.990;-86.756;2023-04-01T13:22:35;4;;;4;;
55021;SDS011;68328;35.990;-86.756;2023-04-01T13:24:59;6;;;6;;
55021;SDS011;68328;35.990;-86.756;2023-04-01T13:27:22;5;;;5;;
55021;SDS011;68328;35.990;-86.756;2023-04-01T13:29:51;4;;;3;;
55021;SDS011;68328;35.990;-86.756;2023-04-01T13:32:18;7;;;4;;
55021;SDS011;68328;35.990;-86.756;2023-04-01T13:34:42;5;;;5;;
55021;SDS011;68328;35.990;-86.756;2023-04-01T13:37:07;6;;;6;;
55021;SDS011;68328;35.990;-86.756;2023-04-01T13:39:32;9;;;5;;
55021;SDS011;68328;35.990;-86.756;2023-04-01T13:41:57;6;;;4;;
55021;SDS011;68328;35.990;-86.756;2023-04-01T13:44:19;7;;;6;;
55021;SDS011;68328;35.990;-86.756;2023-04-01T13:46:51;3;;;3;;
55021;SDS011;68328;35.990;-86.756;2023-04-01T13:54:02;5;;;3;;
55021;SDS011;68328;35.990;-86.756;2023-04-01T13:56:29;5;;;3;;
55021;SDS011;68328;35.990;-86.756;2023-04-01T13:58:55;4;;;4;;
55021;SDS011;68328;35.990;-86.756;2023-04-01T14:01:18;5;;;4;;
55021;SDS011;68328;35.990;-86.756;2023-04-01T14:03:49;6;;;4;;
55021;SDS011;68328;35.990;-86.756;2023-04-01T14:06:11;6;;;3;;
55021;SDS011;68328;35.990;-86.756;2023-04-01T14:08:36;2;;;2;;
55021;SDS011;68328;35.990;-86.756;2023-04-01T14:11:01;5;;;4;;
55021;SDS011;68328;35.990;-86.756;2023-04-01T14:13:27;7;;;4;;
55021;SDS011;68328;35.990;-86.756;2023-04-01T14:15:55;4;;;3;;
55021;SDS011;68328;35.990;-86.756;2023-04-01T14:18:18;5;;;5;;
55021;SDS011;68328;35.990;-86.756;2023-04-01T14:20:40;4;;;3;;
55021;SDS011;68328;35.990;-86.756;2023-04-01T14:23:17;6;;;3;;
55021;SDS011;68328;35.990;-86.756;2023-04-01T14:25:32;2;;;2;;
55021;SDS011;68328;35.990;-86.756;2023-04-01T14:27:59;9;;;8;;
55021;SDS011;68328;35.990;-86.756;2023-04-01T14:32:47;5;;;3;;
55021;SDS011;68328;35.990;-86.756;2023-04-01T14:37:43;4;;;3;;
55021;SDS011;68328;35.990;-86.756;2023-04-01T14:45:00;2;;;2;;
55021;SDS011;68328;35.990;-86.756;2023-04-01T14:47:27;7;;;6;;
55021;SDS011;68328;35.990;-86.756;2023-04-01T14:49:46;7;;;3;;
55021;SDS011;68328;35.990;-86.756;2023-04-01T14:52:12;3;;;3;;
55021;SDS011;68328;35.990;-86.756;2023-04-01T14:54:35;4;;;2;;
55021;SDS011;68328;35.990;-86.756;2023-04-01T14:57:05;3;;;3;;
55021;SDS011;68328;35.990;-86.756;2023-04-01T14:59:27;7;;;6;;
55021;SDS011;68328;35.990;-86.756;2023-04-01T15:01:54;10;;;9;;
55021;SDS011;68328;35.990;-86.756;2023-04-01T15:09:11;4;;;2;;
55021;SDS011;68328;35.990;-86.756;2023-04-01T15:11:37;7;;;4;;
55021;SDS011;68328;35.990;-86.756;2023-04-01T15:14:10;6;;;3;;
55021;SDS011;68328;35.990;-86.756;2023-04-01T15:16:26;3;;;3;;
55021;SDS011;68328;35.990;-86.756;2023-04-01T15:18:51;3;;;3;;
55021;SDS011;68328;35.990;-86.756;2023-04-01T15:21:22;7;;;7;;
55021;SDS011;68328;35.990;-86.756;2023-04-01T15:23:46;3;;;2;;
55021;SDS011;68328;35.990;-86.756;2023-04-01T15:28:33;3;;;2;;
55021;SDS011;68328;35.990;-86.756;2023-04-01T15:31:01;1;;;1;;
55021;SDS011;68328;35.990;-86.756;2023-04-01T15:33:34;5;;;3;;
55021;SDS011;68328;35.990;-86.756;2023-04-01T15:35:50;5;;;3;;
55021;SDS011;68328;35.990;-86.756;2023-04-01T15:38:17;1;;;1;;
55021;SDS011;68328;35.990;-86.756;2023-04-01T15:40:42;5;;;2;;
55021;SDS011;68328;35.990;-86.756;2023-04-01T15:43:08;5;;;2;;
55021;SDS011;68328;35.990;-86.756;2023-04-01T15:45:34;3;;;2;;
55021;SDS011;68328;35.990;-86.756;2023-04-01T15:47:58;3;;;1;;
55021;SDS011;68328;35.990;-86.756;2023-04-01T15:50:26;3;;;2;;
55021;SDS011;68328;35.990;-86.756;2023-04-01T15:52:49;5;;;2;;
55021;SDS011;68328;35.990;-86.756;2023-04-01T15:55:16;2;;;2;;
55021;SDS011;68328;35.990;-86.756;2023-04-01T15:57:40;4;;;4;;
55021;SDS011;68328;35.990;-86.756;2023-04-01T16:00:09;3;;;2;;
55021;SDS011;68328;35.990;-86.756;2023-04-01T16:02:31;2;;;0;;
55021;SDS011;68328;35.990;-86.756;2023-04-01T16:04:55;5;;;4;;
55021;SDS011;68328;35.990;-86.756;2023-04-01T16:07:25;4;;;2;;
55021;SDS011;68328;35.990;-86.756;2023-04-01T16:12:15;2;;;2;;
55021;SDS011;68328;35.990;-86.756;2023-04-01T16:14:38;3;;;1;;
55021;SDS011;68328;35.990;-86.756;2023-04-01T16:17:05;3;;;3;;
55021;SDS011;68328;35.990;-86.756;2023-04-01T16:19:34;3;;;3;;
55021;SDS011;68328;35.990;-86.756;2023-04-01T16:21:52;3;;;2;;
55021;SDS011;68328;35.990;-86.756;2023-04-01T16:24:19;4;;;2;;
55021;SDS011;68328;35.990;-86.756;2023-04-01T16:26:44;1;;;1;;
55021;SDS011;68328;35.990;-86.756;2023-04-01T16:29:09;1;;;1;;
55021;SDS011;68328;35.990;-86.756;2023-04-01T16:31:34;7;;;7;;
55021;SDS011;68328;35.990;-86.756;2023-04-01T16:33:58;1;;;1;;
55021;SDS011;68328;35.990;-86.756;2023-04-01T16:36:26;5;;;2;;
55021;SDS011;68328;35.990;-86.756;2023-04-01T16:38:49;2;;;2;;
55021;SDS011;68328;35.990;-86.756;2023-04-01T16:41:16;4;;;3;;
55021;SDS011;68328;35.990;-86.756;2023-04-01T16:43:41;3;;;2;;
55021;SDS011;68328;35.990;-86.756;2023-04-01T16:48:35;3;;;3;;
55021;SDS011;68328;35.990;-86.756;2023-04-01T16:50:59;2;;;2;;
55021;SDS011;68328;35.990;-86.756;2023-04-01T16:53:24;4;;;3;;
55021;SDS011;68328;35.990;-86.756;2023-04-01T16:55:48;3;;;3;;
55021;SDS011;68328;35.990;-86.756;2023-04-01T16:58:14;3;;;3;;
55021;SDS011;68328;35.990;-86.756;2023-04-01T17:00:38;1;;;1;;
55021;SDS011;68328;35.990;-86.756;2023-04-01T17:03:04;4;;;1;;
55021;SDS011;68328;35.990;-86.756;2023-04-01T17:07:56;3;;;2;;
55021;SDS011;68328;35.990;-86.756;2023-04-01T17:10:30;0;;;0;;
55021;SDS011;68328;35.990;-86.756;2023-04-01T17:12:45;1;;;1;;
55021;SDS011;68328;35.990;-86.756;2023-04-01T17:15:12;4;;;2;;
55021;SDS011;68328;35.990;-86.756;2023-04-01T17:17:36;4;;;1;;
55021;SDS011;68328;35.990;-86.756;2023-04-01T17:20:08;2;;;2;;
55021;SDS011;68328;35.990;-86.756;2023-04-01T17:22:27;0;;;0;;
55021;SDS011;68328;35.990;-86.756;2023-04-01T17:24:52;2;;;2;;
55021;SDS011;68328;35.990;-86.756;2023-04-01T17:27:20;3;;;1;;
55021;SDS011;68328;35.990;-86.756;2023-04-01T17:29:44;1;;;1;;
55021;SDS011;68328;35.990;-86.756;2023-04-01T17:32:08;2;;;2;;
55021;SDS011;68328;35.990;-86.756;2023-04-01T17:34:38;3;;;3;;
55021;SDS011;68328;35.990;-86.756;2023-04-01T17:37:01;1;;;1;;
55021;SDS011;68328;35.990;-86.756;2023-04-01T17:39:34;1;;;1;;
55021;SDS011;68328;35.990;-86.756;2023-04-01T17:41:50;2;;;2;;
55021;SDS011;68328;35.990;-86.756;2023-04-01T17:44:18;1;;;1;;
55021;SDS011;68328;35.990;-86.756;2023-04-01T17:46:41;6;;;2;;
55021;SDS011;68328;35.990;-86.756;2023-04-01T17:49:06;2;;;1;;
55021;SDS011;68328;35.990;-86.756;2023-04-01T17:51:30;1;;;1;;
55021;SDS011;68328;35.990;-86.756;2023-04-01T17:53:56;2;;;2;;